Time;durP1;ratioP1;P1;durP2;ratioP2;P2;SDS_P1;SDS_P2;PMS_P1;PMS_P2;Temp;Humidity;BMP_temperature;BMP_pressure;BME280_temperature;BME280_humidity;BME280_pressure;Samples;Min_cycle;Max_cycle;Signal;HPM_P1;HPM_P2
2022/08/29 00:02:35;;;;;;;6.32;3.03;;;;;;;9.67;96.05;101939.84;10459185;28;20116;-75
2022/08/29 00:07:35;;;;;;;4.68;2.72;;;;;;;9.62;96.80;101942.13;10456474;28;20127;-75
2022/08/29 00:12:36;;;;;;;6.00;2.78;;;;;;;9.57;97.22;101940.91;10464550;28;20040;-76
2022/08/29 00:17:37;;;;;;;6.28;2.78;;;;;;;9.52;97.78;101934.44;10486901;28;20054;-76
2022/08/29 00:22:37;;;;;;;6.45;2.75;;;;;;;9.54;98.46;101938.06;10467881;28;20045;-76
2022/08/29 00:27:37;;;;;;;8.48;3.67;;;;;;;9.53;98.96;101941.47;10445549;28;20053;-75
2022/08/29 00:32:38;;;;;;;6.85;3.67;;;;;;;9.50;99.32;101936.97;10464936;28;20044;-75
2022/08/29 00:37:39;;;;;;;5.88;3.15;;;;;;;9.50;99.46;101946.50;10469521;28;20055;-75
2022/08/29 00:42:40;;;;;;;5.82;2.70;;;;;;;9.47;99.31;101941.06;10457954;28;20040;-75
2022/08/29 00:47:46;;;;;;;5.80;2.88;;;;;;;9.49;99.71;101950.84;10444578;28;20056;-75
2022/08/29 00:52:47;;;;;;;7.03;2.63;;;;;;;9.42;99.26;101950.28;10410116;28;20045;-76
2022/08/29 00:57:50;;;;;;;6.22;2.67;;;;;;;9.37;99.50;101950.88;10370815;28;20397;-75
2022/08/29 01:02:53;;;;;;;6.97;3.95;;;;;;;9.28;99.67;101960.69;10379059;28;20603;-76
2022/08/29 01:07:53;;;;;;;7.68;3.17;;;;;;;9.21;100.00;101964.56;10386387;28;20049;-75
2022/08/29 01:12:54;;;;;;;7.05;3.67;;;;;;;9.23;100.00;101972.50;10402313;28;20192;-75
2022/08/29 01:17:54;;;;;;;5.82;3.35;;;;;;;9.18;100.00;101966.97;10384708;28;20082;-74
2022/08/29 01:23:20;;;;;;;9.40;3.75;;;;;;;9.11;100.00;101967.34;10400381;28;20115;-74
2022/08/29 01:28:24;;;;;;;8.40;4.20;;;;;;;9.05;100.00;101966.91;10399629;28;20041;-75
2022/08/29 01:33:25;;;;;;;6.13;3.20;;;;;;;9.00;100.00;101963.06;10434635;28;20029;-75
2022/08/29 01:38:28;;;;;;;6.82;3.67;;;;;;;9.00;100.00;101958.72;10441589;28;20477;-75
2022/08/29 01:43:29;;;;;;;9.93;3.90;;;;;;;8.99;100.00;101959.50;10434378;28;20038;-75
2022/08/29 01:48:29;;;;;;;11.13;4.35;;;;;;;8.91;100.00;101965.88;10403615;28;20051;-75
2022/08/29 01:53:30;;;;;;;9.75;3.65;;;;;;;8.82;100.00;101971.38;10482232;28;20395;-74
2022/08/29 01:58:30;;;;;;;8.57;4.32;;;;;;;8.75;100.00;101967.38;10466558;28;20036;-74
2022/08/29 02:03:31;;;;;;;8.05;4.32;;;;;;;8.72;100.00;101982.84;10440739;28;20170;-75
2022/08/29 02:08:31;;;;;;;8.77;4.75;;;;;;;8.75;100.00;101982.16;10443149;28;20358;-75
2022/08/29 02:13:32;;;;;;;6.80;4.20;;;;;;;8.75;100.00;101977.84;10481376;28;20854;-74
2022/08/29 02:18:33;;;;;;;8.23;4.25;;;;;;;8.87;100.00;101975.22;10475643;28;20042;-75
2022/08/29 02:23:34;;;;;;;9.77;4.90;;;;;;;8.93;100.00;101982.56;10398990;28;20042;-77
2022/08/29 02:28:35;;;;;;;7.60;3.80;;;;;;;8.89;100.00;101968.41;10395336;28;20041;-74
2022/08/29 02:33:36;;;;;;;9.77;5.53;;;;;;;8.85;100.00;101968.97;10398791;28;20140;-74
2022/08/29 02:38:36;;;;;;;9.98;4.30;;;;;;;8.77;100.00;101973.63;10400203;28;20036;-75
2022/08/29 02:43:37;;;;;;;10.80;6.18;;;;;;;8.71;100.00;101970.56;10439180;28;20151;-75
2022/08/29 02:48:37;;;;;;;13.07;6.50;;;;;;;8.65;100.00;101972.72;10440449;28;20362;-75
2022/08/29 02:53:38;;;;;;;8.95;5.97;;;;;;;8.65;100.00;101968.44;10382643;28;20053;-75
2022/08/29 02:58:39;;;;;;;12.82;7.13;;;;;;;8.67;100.00;101973.75;10397521;28;20619;-75
2022/08/29 03:03:39;;;;;;;10.18;6.22;;;;;;;8.62;100.00;101970.81;10392593;28;20042;-74
2022/08/29 03:08:40;;;;;;;12.15;5.65;;;;;;;8.57;100.00;101969.59;10386560;28;20042;-75
2022/08/29 03:13:40;;;;;;;12.60;6.32;;;;;;;8.48;100.00;101964.53;10383409;28;20530;-75
2022/08/29 03:18:41;;;;;;;19.58;6.07;;;;;;;8.44;100.00;101959.00;10402405;28;20045;-74
2022/08/29 03:23:42;;;;;;;15.07;8.45;;;;;;;8.44;100.00;101949.47;10433364;28;20108;-74
2022/08/29 03:28:43;;;;;;;10.25;6.88;;;;;;;8.51;100.00;101951.75;10400768;28;20045;-74
2022/08/29 03:33:47;;;;;;;14.77;7.57;;;;;;;8.62;100.00;101944.72;10438564;28;20041;-75
2022/08/29 03:38:47;;;;;;;8.77;6.78;;;;;;;8.55;100.00;101950.28;10423693;28;20048;-75
2022/08/29 03:43:48;;;;;;;13.57;7.93;;;;;;;8.45;100.00;101948.66;10370754;28;20132;-75
2022/08/29 03:48:48;;;;;;;15.32;6.68;;;;;;;8.43;100.00;101951.97;10393870;28;20049;-76
2022/08/29 03:53:49;;;;;;;16.27;6.95;;;;;;;8.40;100.00;101952.63;10440886;28;20049;-76
2022/08/29 03:58:49;;;;;;;14.95;8.85;;;;;;;8.50;100.00;101949.94;10423035;28;20497;-75
2022/08/29 04:03:50;;;;;;;13.98;7.85;;;;;;;8.63;100.00;101929.97;10408509;28;20037;-75
2022/08/29 04:08:51;;;;;;;14.90;8.05;;;;;;;8.68;100.00;101938.13;10459245;28;20123;-75
2022/08/29 04:13:51;;;;;;;15.60;7.25;;;;;;;8.67;100.00;101932.00;10442121;28;20045;-75
2022/08/29 04:18:52;;;;;;;19.30;8.90;;;;;;;8.72;100.00;101933.25;10406700;28;20045;-78
2022/08/29 04:23:52;;;;;;;17.45;8.82;;;;;;;8.77;100.00;101921.41;10433834;28;23909;-75
2022/08/29 04:28:53;;;;;;;14.10;7.47;;;;;;;8.80;100.00;101921.66;10434600;28;20116;-74
2022/08/29 04:33:53;;;;;;;11.02;6.60;;;;;;;8.87;100.00;101930.84;10448183;28;20638;-74
2022/08/29 04:38:54;;;;;;;13.95;7.45;;;;;;;8.97;100.00;101932.38;10459522;28;20067;-75
2022/08/29 04:43:54;;;;;;;18.10;10.35;;;;;;;9.01;100.00;101936.13;10436439;28;20132;-74
2022/08/29 04:48:55;;;;;;;17.95;10.48;;;;;;;9.01;100.00;101931.81;10439675;28;20028;-75
2022/08/29 04:53:55;;;;;;;20.90;8.80;;;;;;;8.98;100.00;101935.91;10430360;28;20052;-75
2022/08/29 04:58:56;;;;;;;20.20;8.60;;;;;;;9.04;100.00;101950.31;10431006;28;20046;-76
2022/08/29 05:03:57;;;;;;;14.93;7.75;;;;;;;9.09;100.00;101959.38;10420741;28;20036;-77
2022/08/29 05:08:58;;;;;;;16.30;9.30;;;;;;;9.15;100.00;101969.38;10412724;28;20120;-75
2022/08/29 05:13:59;;;;;;;14.00;9.48;;;;;;;9.25;100.00;101976.13;10443084;28;20059;-75
2022/08/29 05:18:59;;;;;;;13.27;8.05;;;;;;;9.41;100.00;101978.13;10433619;28;20041;-75
2022/08/29 05:24:00;;;;;;;13.77;8.70;;;;;;;9.58;100.00;101981.03;10370041;28;20442;-75
2022/08/29 05:29:01;;;;;;;13.98;8.30;;;;;;;9.72;100.00;101980.28;10458672;28;20068;-75
2022/08/29 05:34:03;;;;;;;13.85;8.02;;;;;;;9.96;100.00;101990.59;10429606;28;20064;-74
2022/08/29 05:39:04;;;;;;;16.90;8.13;;;;;;;10.16;100.00;101991.94;10451386;28;20064;-74
2022/08/29 05:44:04;;;;;;;19.95;7.80;;;;;;;10.46;100.00;101994.81;10453882;28;20472;-75
2022/08/29 05:49:05;;;;;;;11.43;8.15;;;;;;;10.80;100.00;101999.66;10437329;28;20036;-74
2022/08/29 05:54:06;;;;;;;13.07;8.00;;;;;;;11.26;100.00;102003.41;10511719;28;20104;-73
2022/08/29 05:59:07;;;;;;;10.32;8.45;;;;;;;11.59;100.00;101999.38;10461360;28;20453;-74
2022/08/29 06:04:07;;;;;;;17.17;7.72;;;;;;;11.79;100.00;102006.63;10455027;28;20523;-74
2022/08/29 06:09:08;;;;;;;11.63;6.95;;;;;;;12.18;100.00;102005.53;10449725;28;20043;-74
2022/08/29 06:14:08;;;;;;;12.90;6.70;;;;;;;12.53;100.00;102011.03;10473480;28;20477;-75
2022/08/29 06:19:09;;;;;;;12.77;6.57;;;;;;;12.77;96.43;102011.56;10467410;28;20060;-75
2022/08/29 06:24:10;;;;;;;12.48;6.65;;;;;;;13.30;95.69;102011.84;10441818;28;20049;-74
2022/08/29 06:29:10;;;;;;;11.00;7.57;;;;;;;14.02;90.92;101998.09;10434449;28;20144;-75
2022/08/29 06:34:11;;;;;;;7.75;5.60;;;;;;;15.04;83.79;102001.34;10426403;28;20500;-75
2022/08/29 06:39:11;;;;;;;8.07;5.35;;;;;;;15.50;78.82;102000.84;10409032;28;20187;-74
2022/08/29 06:44:12;;;;;;;9.50;5.10;;;;;;;15.69;78.84;101999.94;10394923;28;20422;-75
2022/08/29 06:49:13;;;;;;;9.88;5.13;;;;;;;18.14;71.45;102003.44;10399027;28;20046;-74
2022/08/29 06:54:15;;;;;;;9.90;5.10;;;;;;;19.92;61.87;102008.03;10394030;28;20099;-77
2022/08/29 06:59:16;;;;;;;12.95;4.85;;;;;;;20.99;56.17;102004.50;10385914;28;20041;-74
2022/08/29 07:04:16;;;;;;;8.98;4.35;;;;;;;21.17;53.00;102006.69;10432799;28;20447;-75
2022/08/29 07:09:17;;;;;;;11.23;4.25;;;;;;;20.54;55.42;102008.75;10422698;28;20103;-75
2022/08/29 07:14:20;;;;;;;10.90;3.70;;;;;;;20.48;53.93;102003.28;10403300;28;20124;-76
2022/08/29 07:19:20;;;;;;;8.98;4.10;;;;;;;19.79;59.49;102001.47;10465147;28;20047;-76
2022/08/29 07:24:21;;;;;;;7.97;3.83;;;;;;;19.12;57.54;102011.00;10435049;28;20117;-75
2022/08/29 07:29:22;;;;;;;9.10;3.65;;;;;;;17.97;62.15;102015.16;10414570;28;20136;-77
2022/08/29 07:34:22;;;;;;;7.38;4.00;;;;;;;16.99;65.70;102008.91;10411667;28;20500;-78
2022/08/29 07:39:23;;;;;;;9.00;4.30;;;;;;;16.57;67.96;102017.75;10396489;28;20124;-78
2022/08/29 07:44:24;;;;;;;9.65;3.90;;;;;;;16.27;70.56;102018.28;10450274;28;20033;-77
2022/08/29 07:49:25;;;;;;;9.05;5.63;;;;;;;16.44;71.87;102008.44;10415278;28;20405;-76
2022/08/29 07:54:26;;;;;;;12.33;3.53;;;;;;;17.11;69.72;102003.19;10393773;28;20041;-78
2022/08/29 07:59:26;;;;;;;9.43;3.90;;;;;;;17.80;66.76;102002.22;10394982;28;20069;-78
2022/08/29 08:04:27;;;;;;;10.60;3.53;;;;;;;18.81;61.32;102007.38;10411357;28;20065;-77
2022/08/29 08:09:27;;;;;;;6.78;3.60;;;;;;;20.37;54.71;102003.00;10412203;28;20038;-78
2022/08/29 08:14:28;;;;;;;12.07;4.13;;;;;;;22.80;48.81;102004.34;10428268;28;20116;-78
2022/08/29 08:19:29;;;;;;;10.87;4.00;;;;;;;24.57;42.66;102009.03;10410930;28;20116;-75
2022/08/29 08:24:30;;;;;;;7.22;3.92;;;;;;;23.29;44.01;102009.53;10413015;28;20029;-75
2022/08/29 08:29:30;;;;;;;8.60;3.50;;;;;;;23.90;41.63;101994.16;10399323;28;20140;-76
2022/08/29 08:34:31;;;;;;;10.90;2.77;;;;;;;24.11;40.81;102004.22;10409030;28;20056;-75
2022/08/29 08:39:31;;;;;;;9.10;4.03;;;;;;;25.90;38.00;102008.84;10420459;28;20544;-75
2022/08/29 08:44:52;;;;;;;16.07;4.47;;;;;;;26.12;36.27;102003.50;10404152;28;20052;-76
2022/08/29 08:50:00;;;;;;;8.80;3.00;;;;;;;26.22;35.40;102005.31;10399964;28;20111;-76
2022/08/29 08:55:08;;;;;;;10.07;4.10;;;;;;;22.17;41.77;102017.53;10480735;28;20040;-76
2022/08/29 09:00:11;;;;;;;8.88;4.03;;;;;;;19.74;48.74;102012.81;10484684;28;20072;-77
2022/08/29 09:05:36;;;;;;;7.78;3.17;;;;;;;19.63;49.82;102008.09;10486109;28;20048;-77
2022/08/29 09:10:55;;;;;;;9.63;3.38;;;;;;;19.88;48.61;102021.19;10482026;28;20427;-76
2022/08/29 09:15:58;;;;;;;6.57;2.50;;;;;;;24.37;41.93;102013.34;10472392;28;20052;-75
2022/08/29 09:20:59;;;;;;;10.32;3.67;;;;;;;25.53;34.87;102005.16;10468292;28;20094;-77
2022/08/29 09:25:59;;;;;;;21.13;4.20;;;;;;;24.96;38.30;102006.66;10387461;28;20080;-77
2022/08/29 09:31:29;;;;;;;7.47;3.20;;;;;;;27.55;33.41;101998.75;10430268;28;20043;-77
2022/08/29 09:36:33;;;;;;;9.38;3.85;;;;;;;28.40;31.35;102005.38;10455080;28;20029;-77
2022/08/29 09:41:34;;;;;;;8.75;3.20;;;;;;;27.48;32.56;102010.41;10442646;28;20056;-77
2022/08/29 09:46:34;;;;;;;5.57;3.00;;;;;;;27.75;33.41;102008.50;10442127;28;20044;-79
2022/08/29 09:51:36;;;;;;;5.13;3.07;;;;;;;28.91;29.92;102006.69;10424327;28;20086;-80
2022/08/29 09:56:52;;;;;;;7.72;3.17;;;;;;;28.55;30.10;102004.34;10440897;28;20069;-78
2022/08/29 10:02:22;;;;;;;9.25;4.35;;;;;;;27.17;33.08;101991.75;10460398;28;20065;-81
2022/08/29 10:07:30;;;;;;;10.88;4.72;;;;;;;29.26;29.36;101983.78;10463756;28;20527;-76
2022/08/29 10:13:00;;;;;;;14.05;3.58;;;;;;;29.07;29.89;101984.94;10466624;28;20094;-76
2022/08/29 10:18:33;;;;;;;8.95;4.55;;;;;;;27.30;33.55;101989.91;10455771;28;20527;-76
2022/08/29 10:23:44;;;;;;;8.10;2.75;;;;;;;26.94;32.80;101987.34;10397162;28;20041;-74
2022/08/29 10:28:50;;;;;;;8.50;3.85;;;;;;;24.98;34.74;101988.84;10461234;28;20043;-77
2022/08/29 10:34:21;;;;;;;8.63;3.63;;;;;;;24.04;37.08;101980.97;10431095;28;20041;-77
2022/08/29 10:39:28;;;;;;;7.57;3.42;;;;;;;23.14;39.57;101978.13;10451149;28;20040;-77
2022/08/29 10:44:47;;;;;;;11.73;4.72;;;;;;;23.82;37.86;101972.72;10435852;28;20044;-77
2022/08/29 10:50:06;;;;;;;7.28;3.72;;;;;;;25.52;37.84;101972.13;10453334;28;20097;-77
2022/08/29 10:55:53;;;;;;;8.10;2.83;;;;;;;28.82;31.57;101953.81;10481707;28;20043;-78
2022/08/29 11:01:14;;;;;;;12.68;4.68;;;;;;;27.97;31.72;101954.56;10466537;28;20392;-78
2022/08/29 11:06:18;;;;;;;8.95;4.00;;;;;;;25.92;34.70;101949.81;10439483;28;20065;-77
2022/08/29 11:11:19;;;;;;;13.00;4.80;;;;;;;26.64;33.98;101942.66;10393755;28;20052;-77
2022/08/29 11:16:26;;;;;;;8.40;4.17;;;;;;;26.89;34.21;101940.81;10372257;28;20036;-76
2022/08/29 11:21:50;;;;;;;9.63;4.10;;;;;;;27.62;32.31;101926.13;10380756;28;20021;-77
2022/08/29 11:27:06;;;;;;;9.75;2.95;;;;;;;29.74;28.65;101923.81;10458380;28;20044;-76
2022/08/29 11:32:08;;;;;;;8.80;3.45;;;;;;;30.18;27.16;101926.69;10429831;28;20113;-75
2022/08/29 11:37:18;;;;;;;11.77;4.07;;;;;;;28.94;29.98;101917.75;10446800;28;20037;-75
2022/08/29 11:42:21;;;;;;;12.32;3.58;;;;;;;29.67;28.89;101913.16;10464198;28;20045;-76
2022/08/29 11:47:35;;;;;;;8.15;2.92;;;;;;;30.67;26.71;101918.63;10479960;28;20168;-75
2022/08/29 11:52:35;;;;;;;7.68;3.47;;;;;;;30.62;25.89;101915.13;10480668;28;20036;-75
2022/08/29 11:57:43;;;;;;;6.27;3.20;;;;;;;30.81;25.69;101907.53;10462900;28;20052;-75
2022/08/29 12:02:44;;;;;;;6.57;3.67;;;;;;;30.44;26.79;101902.84;10483546;28;20447;-75
2022/08/29 12:07:52;;;;;;;14.13;3.73;;;;;;;31.00;26.08;101893.63;10471404;28;20140;-76
2022/08/29 12:12:57;;;;;;;9.23;3.75;;;;;;;29.52;27.84;101899.00;10463168;28;20125;-76
2022/08/29 12:17:58;;;;;;;6.95;2.85;;;;;;;29.09;28.63;101891.50;10458054;28;20048;-76
2022/08/29 12:22:58;;;;;;;6.82;2.67;;;;;;;29.01;27.71;101889.81;10487598;28;20124;-77
2022/08/29 12:28:05;;;;;;;8.80;3.93;;;;;;;28.85;28.74;101891.81;10489615;28;20052;-77
2022/08/29 12:33:34;;;;;;;30.92;4.82;;;;;;;29.73;27.94;101894.16;10471803;28;20094;-77
2022/08/29 12:38:53;;;;;;;12.85;3.58;;;;;;;29.74;27.40;101879.75;10446700;28;20542;-75
2022/08/29 12:43:55;;;;;;;14.77;5.00;;;;;;;28.98;28.29;101865.59;10480889;28;20044;-75
2022/08/29 12:49:24;;;;;;;6.35;2.33;;;;;;;28.65;28.19;101866.91;10486848;28;20055;-75
2022/08/29 12:54:40;;;;;;;7.72;3.42;;;;;;;30.31;26.68;101862.59;10451419;28;20037;-75
2022/08/29 12:59:44;;;;;;;16.90;4.97;;;;;;;30.09;27.53;101847.72;10444205;28;20029;-75
2022/08/29 13:04:45;;;;;;;20.80;4.53;;;;;;;31.22;26.01;101849.91;10430407;28;20033;-74
2022/08/29 13:09:53;;;;;;;8.27;3.93;;;;;;;29.28;28.35;101844.50;10444771;28;20041;-74
2022/08/29 13:14:55;;;;;;;4.70;2.92;;;;;;;29.87;26.70;101840.88;10402919;28;20120;-74
2022/08/29 13:20:33;;;;;;;7.03;2.53;;;;;;;30.57;26.07;101831.47;10406204;28;20041;-75
2022/08/29 13:25:36;;;;;;;6.65;3.15;;;;;;;30.73;25.36;101832.03;10405586;28;20056;-75
2022/08/29 13:30:36;;;;;;;10.48;4.18;;;;;;;31.24;25.26;101830.00;10425649;28;20112;-75
2022/08/29 13:35:37;;;;;;;11.30;3.43;;;;;;;31.74;25.09;101820.69;10468086;28;20478;-75
2022/08/29 13:40:53;;;;;;;8.00;3.10;;;;;;;31.08;26.31;101818.66;10480813;28;20075;-76
2022/08/29 13:46:11;;;;;;;6.65;2.17;;;;;;;30.13;25.81;101808.97;10431485;28;20032;-76
2022/08/29 13:51:12;;;;;;;10.60;3.38;;;;;;;29.81;26.82;101811.28;10447525;28;20056;-75
2022/08/29 13:56:29;;;;;;;11.93;3.20;;;;;;;30.76;25.35;101809.47;10441350;28;20056;-75
2022/08/29 14:01:29;;;;;;;8.63;3.33;;;;;;;30.78;25.53;101807.63;10444137;28;20090;-75
2022/08/29 14:06:31;;;;;;;8.77;3.70;;;;;;;29.95;26.05;101793.97;10426769;28;20504;-76
2022/08/29 14:11:32;;;;;;;7.00;2.92;;;;;;;29.36;26.35;101798.56;10459494;28;20041;-75
2022/08/29 14:16:32;;;;;;;12.07;8.70;;;;;;;29.42;27.33;101790.41;10426007;28;20064;-74
2022/08/29 14:21:33;;;;;;;11.67;3.83;;;;;;;30.21;27.50;101788.09;10408099;28;20037;-75
2022/08/29 14:26:34;;;;;;;7.60;3.13;;;;;;;30.36;25.13;101780.59;10397788;28;20555;-76
2022/08/29 14:31:34;;;;;;;4.87;2.67;;;;;;;28.96;26.51;101780.34;10391706;28;20045;-76
2022/08/29 14:36:34;;;;;;;6.43;3.00;;;;;;;29.84;26.46;101786.97;10402654;28;20384;-75
2022/08/29 14:41:35;;;;;;;9.23;2.70;;;;;;;29.22;27.74;101771.81;10402121;28;20061;-75
2022/08/29 14:46:35;;;;;;;8.40;2.60;;;;;;;29.74;25.23;101774.56;10414749;28;20037;-75
2022/08/29 14:51:36;;;;;;;10.10;3.57;;;;;;;28.93;28.05;101772.28;10438047;28;20053;-75
2022/08/29 14:56:37;;;;;;;5.07;2.40;;;;;;;28.71;26.90;101762.69;10410755;28;20150;-74
2022/08/29 15:01:37;;;;;;;7.83;2.30;;;;;;;28.75;26.60;101768.94;10416755;28;20144;-74
2022/08/29 15:06:38;;;;;;;6.10;2.40;;;;;;;28.06;28.48;101755.41;10421059;28;20136;-74
2022/08/29 15:11:38;;;;;;;6.67;3.33;;;;;;;27.39;30.91;101753.38;10468986;28;20033;-75
2022/08/29 15:16:40;;;;;;;7.30;2.63;;;;;;;27.86;28.37;101747.56;10440052;28;20056;-76
2022/08/29 15:21:41;;;;;;;9.00;3.47;;;;;;;27.28;29.05;101736.44;10442776;28;20090;-75
2022/08/29 15:26:43;;;;;;;7.10;2.27;;;;;;;26.84;30.15;101729.59;10432273;28;20125;-74
2022/08/29 15:31:44;;;;;;;5.05;2.97;;;;;;;26.91;29.72;101734.91;10478151;28;20040;-74
2022/08/29 15:36:45;;;;;;;6.93;3.40;;;;;;;26.25;30.16;101725.41;10431953;28;20516;-73
2022/08/29 15:41:46;;;;;;;;;;;;;;;25.60;32.84;101720.19;10491316;28;20051;-73
2022/08/29 15:46:47;;;;;;;7.07;2.25;;;;;;;25.19;31.43;101725.53;10422490;28;19928;-73
2022/08/29 15:51:48;;;;;;;4.80;2.40;;;;;;;25.80;30.20;101718.34;10426369;28;20477;-74
2022/08/29 15:56:50;;;;;;;8.65;5.72;;;;;;;25.14;33.18;101727.31;10401650;28;20393;-77
2022/08/29 16:01:52;;;;;;;7.03;3.03;;;;;;;24.60;34.35;101713.84;10433858;28;20469;-74
2022/08/29 16:06:53;;;;;;;7.28;3.13;;;;;;;23.90;34.04;101721.50;10398662;28;20037;-74
2022/08/29 16:11:55;;;;;;;13.43;4.13;;;;;;;23.35;33.94;101724.72;10423652;28;20183;-73
2022/08/29 16:16:56;;;;;;;4.53;1.95;;;;;;;23.00;35.92;101718.13;10410884;28;20524;-73
2022/08/29 16:21:58;;;;;;;4.63;2.28;;;;;;;22.99;36.31;101716.34;10397466;28;20037;-74
2022/08/29 16:26:59;;;;;;;4.38;2.03;;;;;;;22.75;36.69;101714.34;10415842;28;20045;-74
2022/08/29 16:32:00;;;;;;;8.50;4.80;;;;;;;22.47;38.92;101712.25;10437620;28;20095;-73
2022/08/29 16:37:00;;;;;;;7.53;2.83;;;;;;;22.39;39.57;101717.47;10399546;28;20466;-76
2022/08/29 16:42:01;;;;;;;6.68;3.05;;;;;;;22.06;38.88;101713.50;10422345;28;20110;-73
2022/08/29 16:47:02;;;;;;;5.93;2.17;;;;;;;21.81;39.96;101717.56;10461995;28;20037;-73
2022/08/29 16:52:03;;;;;;;10.30;3.15;;;;;;;21.79;41.59;101708.66;10444171;28;20120;-74
2022/08/29 16:57:03;;;;;;;8.70;3.90;;;;;;;21.71;38.41;101713.88;10452841;28;20049;-74
2022/08/29 17:02:04;;;;;;;8.07;2.25;;;;;;;21.47;39.33;101714.34;10446014;28;20048;-74
2022/08/29 17:07:05;;;;;;;8.15;2.70;;;;;;;21.14;42.99;101708.50;10459694;28;20448;-74
2022/08/29 17:17:06;;;;;;;12.77;7.70;;;;;;;20.28;48.94;101713.94;10413643;28;20033;-74
2022/08/29 17:22:08;;;;;;;8.05;4.00;;;;;;;19.78;52.14;101709.25;10443219;28;20127;-74
2022/08/29 17:27:10;;;;;;;10.57;4.03;;;;;;;19.29;53.01;101707.22;10441122;28;20085;-74
2022/08/29 17:32:11;;;;;;;9.88;4.20;;;;;;;18.95;54.77;101716.94;10441715;28;20037;-74
2022/08/29 17:37:12;;;;;;;14.35;2.35;;;;;;;18.64;54.33;101709.06;10430648;28;20128;-74
2022/08/29 17:42:12;;;;;;;4.53;3.03;;;;;;;18.38;56.63;101704.78;10436308;28;20060;-75
2022/08/29 17:47:13;;;;;;;6.38;2.67;;;;;;;18.14;56.56;101708.50;10441996;28;20036;-74
2022/08/29 17:52:13;;;;;;;11.45;2.53;;;;;;;17.99;57.49;101714.19;10442713;28;20131;-75
2022/08/29 17:57:14;;;;;;;8.38;2.83;;;;;;;17.83;58.07;101720.78;10430589;28;20046;-75
2022/08/29 18:02:14;;;;;;;4.68;2.72;;;;;;;17.69;57.90;101715.03;10401198;28;20103;-74
2022/08/29 18:07:16;;;;;;;9.02;2.60;;;;;;;17.57;59.69;101716.44;10404116;28;20125;-74
2022/08/29 18:12:17;;;;;;;12.57;3.53;;;;;;;17.39;61.66;101713.19;10405438;28;20116;-74
2022/08/29 18:17:17;;;;;;;5.25;2.83;;;;;;;17.20;61.94;101709.91;10397797;28;20038;-73
2022/08/29 18:22:18;;;;;;;8.25;2.75;;;;;;;16.98;63.12;101705.66;10383567;28;20083;-74
2022/08/29 18:27:18;;;;;;;9.02;3.72;;;;;;;16.63;63.64;101707.91;10420055;28;20045;-75
2022/08/29 18:32:19;;;;;;;8.85;2.65;;;;;;;16.29;65.92;101708.47;10396572;28;20072;-73
2022/08/29 18:37:20;;;;;;;11.48;3.05;;;;;;;15.98;67.14;101704.66;10427752;28;20039;-75
2022/08/29 18:42:20;;;;;;;11.25;3.80;;;;;;;15.91;68.03;101715.81;10419319;28;20097;-74
2022/08/29 18:47:21;;;;;;;7.20;3.20;;;;;;;15.89;66.07;101717.50;10440949;28;20064;-74
2022/08/29 18:52:21;;;;;;;4.88;2.60;;;;;;;16.01;66.02;101711.78;10437065;28;20044;-74
2022/08/29 18:57:22;;;;;;;13.98;4.90;;;;;;;16.07;66.53;101717.31;10437179;28;20112;-73
2022/08/29 19:02:22;;;;;;;10.93;2.72;;;;;;;16.08;66.67;101718.22;10420069;28;20076;-74
2022/08/29 19:07:23;;;;;;;8.80;3.40;;;;;;;16.04;66.89;101726.88;10438792;28;20105;-74
2022/08/29 19:12:24;;;;;;;8.00;3.83;;;;;;;15.95;67.30;101723.03;10434595;28;20128;-74
2022/08/29 19:17:24;;;;;;;4.97;2.60;;;;;;;15.88;66.90;101731.53;10397233;28;20504;-74
2022/08/29 19:22:25;;;;;;;5.68;2.60;;;;;;;15.79;68.27;101726.75;10416399;28;20044;-74
2022/08/29 19:27:26;;;;;;;7.72;3.22;;;;;;;15.66;69.43;101735.94;10427083;28;20038;-74
2022/08/29 19:32:27;;;;;;;6.90;3.10;;;;;;;15.62;69.28;101743.63;10434624;28;20481;-74
2022/08/29 19:37:27;;;;;;;10.25;3.90;;;;;;;15.61;68.13;101728.63;10442278;28;20045;-75
2022/08/29 19:42:28;;;;;;;11.85;3.22;;;;;;;15.60;69.55;101740.94;10420603;28;22161;-73
2022/08/29 19:47:28;;;;;;;11.40;3.33;;;;;;;15.49;69.69;101737.84;10415702;28;20249;-73
2022/08/29 19:52:30;;;;;;;8.23;3.63;;;;;;;15.29;69.54;101738.75;10426899;28;20119;-73
2022/08/29 19:57:30;;;;;;;7.88;3.03;;;;;;;15.12;70.49;101741.56;10454233;28;20041;-73
2022/08/29 20:02:31;;;;;;;13.32;3.53;;;;;;;15.03;69.20;101738.53;10449656;28;20086;-74
2022/08/29 20:07:32;;;;;;;6.40;3.50;;;;;;;14.98;69.11;101730.47;10406792;28;20562;-74
2022/08/29 20:12:32;;;;;;;14.10;4.65;;;;;;;14.85;69.88;101733.38;10398598;28;20044;-73
2022/08/29 20:17:33;;;;;;;6.25;3.60;;;;;;;14.81;70.62;101745.50;10431238;28;20120;-73
2022/08/29 20:22:33;;;;;;;12.77;3.47;;;;;;;14.82;69.84;101749.94;10425278;28;20049;-74
2022/08/29 20:27:35;;;;;;;6.93;2.95;;;;;;;14.81;70.98;101742.88;10434544;28;20156;-74
2022/08/29 20:32:36;;;;;;;5.60;3.20;;;;;;;14.62;71.94;101747.28;10428633;28;20101;-74
2022/08/29 20:37:36;;;;;;;6.80;3.50;;;;;;;14.49;72.65;101750.19;10422180;28;20056;-75
2022/08/29 20:42:37;;;;;;;10.85;4.10;;;;;;;14.38;72.12;101745.34;10430636;28;20586;-74
2022/08/29 20:47:37;;;;;;;6.57;3.30;;;;;;;14.27;72.27;101743.94;10399521;28;20048;-72
2022/08/29 20:52:38;;;;;;;11.85;5.05;;;;;;;14.18;73.21;101746.16;10377220;28;20520;-72
2022/08/29 20:57:42;;;;;;;9.80;3.45;;;;;;;14.06;72.76;101746.47;10387293;28;20029;-73
2022/08/29 21:08:02;;;;;;;7.20;4.35;;;;;;;13.94;74.88;101758.22;10426871;28;20484;-73
2022/08/29 21:13:04;;;;;;;;;;;;;;;13.99;73.47;101755.81;10454984;28;20441;-73
2022/08/29 21:18:05;;;;;;;9.15;4.85;;;;;;;14.11;72.92;101758.13;10426116;28;19966;-73
2022/08/29 21:23:07;;;;;;;6.68;3.17;;;;;;;14.26;73.13;101750.03;10407884;28;20433;-73
2022/08/29 21:28:10;;;;;;;10.90;4.30;;;;;;;14.34;72.75;101748.66;10390082;28;20052;-74
2022/08/29 21:33:13;;;;;;;9.00;3.50;;;;;;;14.42;72.26;101743.75;10383472;28;20042;-73
2022/08/29 21:38:13;;;;;;;;;;;;;;;14.46;72.47;101742.16;10418252;28;20059;-73
2022/08/29 21:43:15;;;;;;;10.68;4.10;;;;;;;14.42;71.60;101743.75;10445924;28;19920;-72
2022/08/29 21:48:15;;;;;;;10.87;4.23;;;;;;;14.39;70.82;101741.88;10415283;28;20127;-73
2022/08/29 21:53:16;;;;;;;8.48;3.20;;;;;;;14.41;71.80;101739.34;10423559;28;20045;-73
2022/08/29 21:58:17;;;;;;;10.93;3.72;;;;;;;14.39;72.36;101746.25;10418973;28;20159;-73
2022/08/29 22:03:17;;;;;;;7.47;4.63;;;;;;;14.35;72.21;101753.09;10415985;28;20112;-73
2022/08/29 22:08:21;;;;;;;13.18;6.25;;;;;;;14.41;72.07;101756.84;10416386;28;20493;-73
2022/08/29 22:13:22;;;;;;;10.60;4.05;;;;;;;14.48;71.71;101758.94;10418989;28;20041;-73
2022/08/29 22:18:24;;;;;;;;;;;;;;;14.49;71.77;101756.38;10412954;28;20048;-73
2022/08/29 22:23:24;;;;;;;9.65;3.38;;;;;;;14.50;71.30;101767.81;10419717;28;19927;-73
2022/08/29 22:28:25;;;;;;;8.68;4.28;;;;;;;14.45;72.02;101759.72;10424168;28;20033;-72
2022/08/29 22:33:26;;;;;;;10.07;5.00;;;;;;;14.43;72.54;101763.09;10415930;28;20041;-73
2022/08/29 22:38:28;;;;;;;8.25;3.85;;;;;;;14.41;73.40;101765.66;10411734;28;20076;-73
2022/08/29 22:43:28;;;;;;;;;;;;;;;14.47;73.19;101765.03;10417760;28;20068;-73
2022/08/29 22:48:30;;;;;;;8.73;4.20;;;;;;;14.47;73.83;101772.94;10428408;28;20011;-73
2022/08/29 22:53:30;;;;;;;15.75;4.47;;;;;;;14.47;74.22;101775.56;10430535;28;20041;-73
2022/08/29 22:58:31;;;;;;;9.98;4.72;;;;;;;14.42;74.80;101769.19;10414533;28;20033;-73
2022/08/29 23:03:31;;;;;;;6.55;2.97;;;;;;;14.35;74.97;101765.38;10423328;28;20045;-73
2022/08/29 23:08:32;;;;;;;7.35;4.07;;;;;;;14.30;74.79;101762.53;10419137;28;20401;-73
2022/08/29 23:13:33;;;;;;;11.85;3.83;;;;;;;14.21;75.31;101770.91;10415846;28;20049;-73
2022/08/29 23:18:33;;;;;;;12.63;4.57;;;;;;;14.23;75.31;101773.59;10415513;28;20068;-73